الصفحة الرئيسية
METAR-TAF:

METAR-TAF

مطار :

ييكاتيرينبرغ, روسيا

دائرة عرض: 56-50N, خط طول: 060-38E, ارتفاع: 237 متر

مراقبة الطقس الحالي

تاريخ ووقت الإصدار 38 دقيقة قبل الساعة 21:00UTC
ريح 4 عقدة من الجنوب
درجة الحرارة -8°درجة مئوية
الرطوبة 73%
ضغط 1031 hPa
الرؤية 10 كم أو أكثر
الغيوم لا تقل 1500 م ولا وجود لمزنة ركامية السحاب الأسود

METAR: USSS 182100Z 19002MPS CAVOK M08/M12 Q1031 R26R/290035 NOSIG RMK QFE752/1003

زمن: 02:38 (21:38 UTC)

توقعات

تاريخ ووقت الإصدار 1ساعة و 37 دقيقة قبل الساعة 20:01UTC
التوقعات صالحة من18 الساعة 21 UTC إلى 19 الساعة 21 UTC
ريح 6 عقدة من الجنوب
الرؤية: 3100 متر
غيوم متفرقة على ارتفاع 1100 قدم
ثلوج خفيفة
أصبح
من 19 الساعة 06 UTC إلى 19 الساعة 08 UTC
الرؤية 10 كم أو أكثر
غيوم متفرقة على ارتفاع 2000 قدم
مؤقت
من 19 الساعة 06 UTC إلى 19 الساعة 09 UTC
ريح 16 عقدة من الجنوب

TAF: USSS 182001Z 1821/1921 19003MPS 3100 -SN SCT011 BECMG 1906/1908 9999 NSW SCT020 TEMPO 1906/1909 19008MPS

أرصاد الطقس والتوقعات من أكثر من 4000 مطار (تقارير الطقس للمطار METAR والتنبؤ بالطقس بالمطارTAF).

المحطات المتاحة هي النقط الصفراء والحمراء على الخريطة.

حرك المؤشر فوق النقطة لمعرفة اسم المحطة.

ثم انقر لمعرفة أرصاد وتوقعات الطقس.

لتغيير الخارطة: اضغط على الأزرار الخضراء مع رمز الصليب الأسود للتكبير. على الزر الأخضر مع شرطة للتصغير، أو على الأسهم الخضراء للخرائط المجاورة.


METAR-TAF: